sensor_id;sensor_type;location;lat;lon;timestamp;P1;durP1;ratioP1;P2;durP2;ratioP2
12385;SDS011;6257;57.634;18.310;2023-01-30T00:01:14;8.20;;;1.40;;
12385;SDS011;6257;57.634;18.310;2023-01-30T00:03:43;4.87;;;1.13;;
12385;SDS011;6257;57.634;18.310;2023-01-30T00:06:11;3.20;;;1.00;;
12385;SDS011;6257;57.634;18.310;2023-01-30T00:08:39;7.63;;;1.30;;
12385;SDS011;6257;57.634;18.310;2023-01-30T00:11:08;4.53;;;1.00;;
12385;SDS011;6257;57.634;18.310;2023-01-30T00:13:36;5.90;;;1.17;;
12385;SDS011;6257;57.634;18.310;2023-01-30T00:16:04;7.00;;;1.30;;
12385;SDS011;6257;57.634;18.310;2023-01-30T00:18:33;4.50;;;1.20;;
12385;SDS011;6257;57.634;18.310;2023-01-30T00:21:01;6.23;;;1.40;;
12385;SDS011;6257;57.634;18.310;2023-01-30T00:23:30;3.97;;;1.30;;
12385;SDS011;6257;57.634;18.310;2023-01-30T00:25:59;3.00;;;0.90;;
12385;SDS011;6257;57.634;18.310;2023-01-30T00:28:27;5.63;;;1.33;;
12385;SDS011;6257;57.634;18.310;2023-01-30T00:30:54;3.17;;;1.00;;
12385;SDS011;6257;57.634;18.310;2023-01-30T00:33:22;4.10;;;1.10;;
12385;SDS011;6257;57.634;18.310;2023-01-30T00:35:51;4.07;;;1.10;;
12385;SDS011;6257;57.634;18.310;2023-01-30T00:38:19;4.67;;;1.23;;
12385;SDS011;6257;57.634;18.310;2023-01-30T00:40:46;6.83;;;1.47;;
12385;SDS011;6257;57.634;18.310;2023-01-30T00:43:14;3.90;;;1.27;;
12385;SDS011;6257;57.634;18.310;2023-01-30T00:46:01;2.53;;;0.90;;
12385;SDS011;6257;57.634;18.310;2023-01-30T00:48:47;5.50;;;1.30;;
12385;SDS011;6257;57.634;18.310;2023-01-30T00:51:14;5.37;;;1.33;;
12385;SDS011;6257;57.634;18.310;2023-01-30T00:53:41;2.60;;;1.00;;
12385;SDS011;6257;57.634;18.310;2023-01-30T00:56:08;4.40;;;1.27;;
12385;SDS011;6257;57.634;18.310;2023-01-30T00:58:35;2.90;;;1.10;;
12385;SDS011;6257;57.634;18.310;2023-01-30T01:01:03;2.47;;;1.30;;
12385;SDS011;6257;57.634;18.310;2023-01-30T01:03:30;3.17;;;0.90;;
12385;SDS011;6257;57.634;18.310;2023-01-30T01:05:57;1.67;;;0.80;;
12385;SDS011;6257;57.634;18.310;2023-01-30T01:08:24;1.73;;;0.60;;
12385;SDS011;6257;57.634;18.310;2023-01-30T01:10:51;3.03;;;1.00;;
12385;SDS011;6257;57.634;18.310;2023-01-30T01:13:18;3.63;;;1.03;;
12385;SDS011;6257;57.634;18.310;2023-01-30T01:15:45;2.73;;;1.07;;
12385;SDS011;6257;57.634;18.310;2023-01-30T01:18:14;3.13;;;0.87;;
12385;SDS011;6257;57.634;18.310;2023-01-30T01:20:41;2.80;;;1.10;;
12385;SDS011;6257;57.634;18.310;2023-01-30T01:23:08;2.63;;;0.80;;
12385;SDS011;6257;57.634;18.310;2023-01-30T01:25:36;2.67;;;0.97;;
12385;SDS011;6257;57.634;18.310;2023-01-30T01:28:03;3.27;;;1.07;;
12385;SDS011;6257;57.634;18.310;2023-01-30T01:30:30;4.50;;;0.87;;
12385;SDS011;6257;57.634;18.310;2023-01-30T01:32:57;2.13;;;0.90;;
12385;SDS011;6257;57.634;18.310;2023-01-30T01:35:25;4.53;;;1.07;;
12385;SDS011;6257;57.634;18.310;2023-01-30T01:37:52;2.87;;;0.87;;
12385;SDS011;6257;57.634;18.310;2023-01-30T01:40:21;0.90;;;0.60;;
12385;SDS011;6257;57.634;18.310;2023-01-30T01:43:16;2.10;;;0.80;;
12385;SDS011;6257;57.634;18.310;2023-01-30T01:45:43;1.43;;;0.90;;
12385;SDS011;6257;57.634;18.310;2023-01-30T01:48:14;1.50;;;0.73;;
12385;SDS011;6257;57.634;18.310;2023-01-30T01:50:49;4.03;;;0.93;;
12385;SDS011;6257;57.634;18.310;2023-01-30T01:53:20;2.77;;;0.77;;
12385;SDS011;6257;57.634;18.310;2023-01-30T01:55:50;0.87;;;0.70;;
12385;SDS011;6257;57.634;18.310;2023-01-30T01:58:22;1.13;;;0.70;;
12385;SDS011;6257;57.634;18.310;2023-01-30T02:00:51;2.33;;;0.90;;
12385;SDS011;6257;57.634;18.310;2023-01-30T02:03:22;1.53;;;0.73;;
12385;SDS011;6257;57.634;18.310;2023-01-30T02:05:54;3.33;;;0.90;;
12385;SDS011;6257;57.634;18.310;2023-01-30T02:08:26;1.77;;;0.80;;
12385;SDS011;6257;57.634;18.310;2023-01-30T02:10:58;1.20;;;0.70;;
12385;SDS011;6257;57.634;18.310;2023-01-30T02:13:30;1.40;;;0.90;;
12385;SDS011;6257;57.634;18.310;2023-01-30T02:15:57;3.33;;;0.70;;
12385;SDS011;6257;57.634;18.310;2023-01-30T02:18:26;2.33;;;0.80;;
12385;SDS011;6257;57.634;18.310;2023-01-30T02:21:03;2.70;;;0.70;;
12385;SDS011;6257;57.634;18.310;2023-01-30T02:26:49;1.70;;;0.80;;
12385;SDS011;6257;57.634;18.310;2023-01-30T02:29:46;1.97;;;0.97;;
12385;SDS011;6257;57.634;18.310;2023-01-30T02:32:46;1.97;;;1.00;;
12385;SDS011;6257;57.634;18.310;2023-01-30T02:35:22;2.17;;;0.83;;
12385;SDS011;6257;57.634;18.310;2023-01-30T02:37:57;3.80;;;0.80;;
12385;SDS011;6257;57.634;18.310;2023-01-30T02:40:39;1.13;;;0.90;;
12385;SDS011;6257;57.634;18.310;2023-01-30T02:43:14;2.63;;;1.10;;
12385;SDS011;6257;57.634;18.310;2023-01-30T02:45:47;2.37;;;1.00;;
12385;SDS011;6257;57.634;18.310;2023-01-30T02:48:22;0.80;;;0.73;;
12385;SDS011;6257;57.634;18.310;2023-01-30T02:50:54;2.73;;;1.00;;
12385;SDS011;6257;57.634;18.310;2023-01-30T02:53:24;2.07;;;0.90;;
12385;SDS011;6257;57.634;18.310;2023-01-30T02:55:55;2.20;;;0.80;;
12385;SDS011;6257;57.634;18.310;2023-01-30T02:58:22;1.03;;;0.70;;
12385;SDS011;6257;57.634;18.310;2023-01-30T03:00:55;1.47;;;0.87;;
12385;SDS011;6257;57.634;18.310;2023-01-30T03:03:53;3.03;;;0.93;;
12385;SDS011;6257;57.634;18.310;2023-01-30T03:06:38;1.30;;;0.67;;
12385;SDS011;6257;57.634;18.310;2023-01-30T03:09:14;1.30;;;0.83;;
12385;SDS011;6257;57.634;18.310;2023-01-30T03:11:48;3.53;;;0.80;;
12385;SDS011;6257;57.634;18.310;2023-01-30T03:14:26;1.17;;;1.00;;
12385;SDS011;6257;57.634;18.310;2023-01-30T03:16:58;1.27;;;0.77;;
12385;SDS011;6257;57.634;18.310;2023-01-30T03:19:29;2.30;;;0.73;;
12385;SDS011;6257;57.634;18.310;2023-01-30T03:21:56;2.27;;;0.83;;
12385;SDS011;6257;57.634;18.310;2023-01-30T03:24:23;1.33;;;0.50;;
12385;SDS011;6257;57.634;18.310;2023-01-30T03:26:52;1.87;;;0.63;;
12385;SDS011;6257;57.634;18.310;2023-01-30T03:29:23;1.53;;;0.70;;
12385;SDS011;6257;57.634;18.310;2023-01-30T03:31:50;2.37;;;0.87;;
12385;SDS011;6257;57.634;18.310;2023-01-30T03:34:17;1.80;;;0.60;;
12385;SDS011;6257;57.634;18.310;2023-01-30T03:36:46;1.20;;;0.90;;
12385;SDS011;6257;57.634;18.310;2023-01-30T03:39:13;1.97;;;0.73;;
12385;SDS011;6257;57.634;18.310;2023-01-30T03:41:41;1.13;;;0.60;;
12385;SDS011;6257;57.634;18.310;2023-01-30T03:44:08;1.73;;;0.53;;
12385;SDS011;6257;57.634;18.310;2023-01-30T03:46:35;0.67;;;0.40;;
12385;SDS011;6257;57.634;18.310;2023-01-30T03:49:02;1.87;;;0.60;;
12385;SDS011;6257;57.634;18.310;2023-01-30T03:51:29;1.60;;;0.40;;
12385;SDS011;6257;57.634;18.310;2023-01-30T03:53:57;0.40;;;0.40;;
12385;SDS011;6257;57.634;18.310;2023-01-30T03:56:24;1.83;;;0.63;;
12385;SDS011;6257;57.634;18.310;2023-01-30T03:58:51;1.53;;;0.60;;
12385;SDS011;6257;57.634;18.310;2023-01-30T04:01:19;0.50;;;0.30;;
12385;SDS011;6257;57.634;18.310;2023-01-30T04:03:46;0.90;;;0.50;;
12385;SDS011;6257;57.634;18.310;2023-01-30T04:06:13;2.03;;;0.40;;
12385;SDS011;6257;57.634;18.310;2023-01-30T04:08:40;0.97;;;0.40;;
12385;SDS011;6257;57.634;18.310;2023-01-30T04:11:08;2.17;;;0.40;;
12385;SDS011;6257;57.634;18.310;2023-01-30T04:13:35;1.10;;;0.50;;
12385;SDS011;6257;57.634;18.310;2023-01-30T04:16:15;1.63;;;0.47;;
12385;SDS011;6257;57.634;18.310;2023-01-30T04:18:43;1.70;;;0.33;;
12385;SDS011;6257;57.634;18.310;2023-01-30T04:21:10;1.70;;;0.43;;
12385;SDS011;6257;57.634;18.310;2023-01-30T04:23:38;1.10;;;0.20;;
12385;SDS011;6257;57.634;18.310;2023-01-30T04:26:05;3.70;;;0.50;;
12385;SDS011;6257;57.634;18.310;2023-01-30T04:28:34;3.23;;;0.60;;
12385;SDS011;6257;57.634;18.310;2023-01-30T04:31:02;1.73;;;0.67;;
12385;SDS011;6257;57.634;18.310;2023-01-30T04:33:29;3.27;;;0.70;;
12385;SDS011;6257;57.634;18.310;2023-01-30T04:35:59;0.80;;;0.60;;
12385;SDS011;6257;57.634;18.310;2023-01-30T04:38:28;1.43;;;0.50;;
12385;SDS011;6257;57.634;18.310;2023-01-30T04:40:56;1.83;;;0.70;;
12385;SDS011;6257;57.634;18.310;2023-01-30T04:43:26;2.03;;;0.70;;
12385;SDS011;6257;57.634;18.310;2023-01-30T04:45:54;2.30;;;0.50;;
12385;SDS011;6257;57.634;18.310;2023-01-30T04:48:22;2.47;;;0.60;;
12385;SDS011;6257;57.634;18.310;2023-01-30T04:50:50;2.47;;;0.60;;
12385;SDS011;6257;57.634;18.310;2023-01-30T04:53:19;4.27;;;0.50;;
12385;SDS011;6257;57.634;18.310;2023-01-30T04:55:47;2.50;;;0.70;;
12385;SDS011;6257;57.634;18.310;2023-01-30T04:58:14;2.27;;;0.67;;
12385;SDS011;6257;57.634;18.310;2023-01-30T05:00:44;4.97;;;0.90;;
12385;SDS011;6257;57.634;18.310;2023-01-30T05:03:12;3.50;;;0.73;;
12385;SDS011;6257;57.634;18.310;2023-01-30T05:05:39;1.73;;;0.60;;
12385;SDS011;6257;57.634;18.310;2023-01-30T05:08:06;5.13;;;0.97;;
12385;SDS011;6257;57.634;18.310;2023-01-30T05:10:34;2.43;;;0.73;;
12385;SDS011;6257;57.634;18.310;2023-01-30T05:13:01;1.90;;;0.50;;
12385;SDS011;6257;57.634;18.310;2023-01-30T05:15:28;3.27;;;0.70;;
12385;SDS011;6257;57.634;18.310;2023-01-30T05:17:57;5.40;;;0.80;;
12385;SDS011;6257;57.634;18.310;2023-01-30T05:20:25;4.23;;;0.87;;
12385;SDS011;6257;57.634;18.310;2023-01-30T05:22:52;4.40;;;0.90;;
12385;SDS011;6257;57.634;18.310;2023-01-30T05:25:19;4.87;;;0.87;;
12385;SDS011;6257;57.634;18.310;2023-01-30T05:27:46;4.43;;;0.83;;
12385;SDS011;6257;57.634;18.310;2023-01-30T05:30:13;6.83;;;1.00;;
12385;SDS011;6257;57.634;18.310;2023-01-30T05:32:40;6.47;;;1.23;;
12385;SDS011;6257;57.634;18.310;2023-01-30T05:35:09;3.53;;;0.80;;
12385;SDS011;6257;57.634;18.310;2023-01-30T05:37:36;6.70;;;1.20;;
12385;SDS011;6257;57.634;18.310;2023-01-30T05:40:03;5.53;;;1.20;;
12385;SDS011;6257;57.634;18.310;2023-01-30T05:42:31;5.30;;;1.00;;
12385;SDS011;6257;57.634;18.310;2023-01-30T05:44:59;3.63;;;1.50;;
12385;SDS011;6257;57.634;18.310;2023-01-30T05:47:26;8.80;;;1.23;;
12385;SDS011;6257;57.634;18.310;2023-01-30T05:49:53;6.93;;;1.30;;
12385;SDS011;6257;57.634;18.310;2023-01-30T05:52:21;9.33;;;1.67;;
12385;SDS011;6257;57.634;18.310;2023-01-30T05:54:48;7.37;;;1.30;;
12385;SDS011;6257;57.634;18.310;2023-01-30T05:57:15;7.40;;;1.47;;
12385;SDS011;6257;57.634;18.310;2023-01-30T05:59:42;9.27;;;2.03;;
12385;SDS011;6257;57.634;18.310;2023-01-30T06:02:09;8.83;;;1.90;;
12385;SDS011;6257;57.634;18.310;2023-01-30T06:04:36;8.27;;;2.10;;
12385;SDS011;6257;57.634;18.310;2023-01-30T06:07:03;10.53;;;1.73;;
12385;SDS011;6257;57.634;18.310;2023-01-30T06:09:31;11.70;;;1.97;;
12385;SDS011;6257;57.634;18.310;2023-01-30T06:11:58;8.73;;;1.53;;
12385;SDS011;6257;57.634;18.310;2023-01-30T06:14:25;7.03;;;1.43;;
12385;SDS011;6257;57.634;18.310;2023-01-30T06:16:52;5.60;;;1.43;;
12385;SDS011;6257;57.634;18.310;2023-01-30T06:19:19;8.33;;;1.93;;
12385;SDS011;6257;57.634;18.310;2023-01-30T06:21:46;6.33;;;1.33;;
12385;SDS011;6257;57.634;18.310;2023-01-30T06:24:13;8.90;;;1.93;;
12385;SDS011;6257;57.634;18.310;2023-01-30T06:26:42;13.47;;;2.87;;
12385;SDS011;6257;57.634;18.310;2023-01-30T06:29:09;9.97;;;1.93;;
12385;SDS011;6257;57.634;18.310;2023-01-30T06:31:36;9.33;;;2.20;;
12385;SDS011;6257;57.634;18.310;2023-01-30T06:34:03;8.47;;;1.20;;
12385;SDS011;6257;57.634;18.310;2023-01-30T06:36:30;8.67;;;1.90;;
12385;SDS011;6257;57.634;18.310;2023-01-30T06:38:57;13.10;;;2.23;;
12385;SDS011;6257;57.634;18.310;2023-01-30T06:41:24;10.97;;;1.80;;
12385;SDS011;6257;57.634;18.310;2023-01-30T06:43:52;9.20;;;1.77;;
12385;SDS011;6257;57.634;18.310;2023-01-30T06:46:20;8.40;;;2.20;;
12385;SDS011;6257;57.634;18.310;2023-01-30T06:48:47;10.37;;;2.30;;
12385;SDS011;6257;57.634;18.310;2023-01-30T06:51:14;9.30;;;1.80;;
12385;SDS011;6257;57.634;18.310;2023-01-30T06:53:41;11.60;;;2.63;;
12385;SDS011;6257;57.634;18.310;2023-01-30T06:56:08;12.87;;;2.00;;
12385;SDS011;6257;57.634;18.310;2023-01-30T06:58:35;11.83;;;2.67;;
12385;SDS011;6257;57.634;18.310;2023-01-30T07:01:03;11.83;;;2.40;;
12385;SDS011;6257;57.634;18.310;2023-01-30T07:03:30;10.23;;;2.13;;
12385;SDS011;6257;57.634;18.310;2023-01-30T07:05:57;8.13;;;2.43;;
12385;SDS011;6257;57.634;18.310;2023-01-30T07:08:25;8.47;;;1.73;;
12385;SDS011;6257;57.634;18.310;2023-01-30T07:10:52;6.57;;;2.13;;
12385;SDS011;6257;57.634;18.310;2023-01-30T07:13:19;11.10;;;2.30;;
12385;SDS011;6257;57.634;18.310;2023-01-30T07:15:46;7.83;;;1.87;;
12385;SDS011;6257;57.634;18.310;2023-01-30T07:18:14;11.60;;;2.60;;
12385;SDS011;6257;57.634;18.310;2023-01-30T07:20:44;11.33;;;2.33;;
12385;SDS011;6257;57.634;18.310;2023-01-30T07:23:12;9.83;;;2.20;;
12385;SDS011;6257;57.634;18.310;2023-01-30T07:25:39;14.13;;;2.67;;
12385;SDS011;6257;57.634;18.310;2023-01-30T07:28:06;7.70;;;2.10;;
12385;SDS011;6257;57.634;18.310;2023-01-30T07:30:34;12.90;;;2.43;;
12385;SDS011;6257;57.634;18.310;2023-01-30T07:33:02;9.80;;;2.13;;
12385;SDS011;6257;57.634;18.310;2023-01-30T07:35:32;12.80;;;2.10;;
12385;SDS011;6257;57.634;18.310;2023-01-30T07:38:00;7.83;;;2.63;;
12385;SDS011;6257;57.634;18.310;2023-01-30T07:40:27;13.57;;;2.17;;
12385;SDS011;6257;57.634;18.310;2023-01-30T07:42:54;9.07;;;1.93;;
12385;SDS011;6257;57.634;18.310;2023-01-30T07:45:22;14.10;;;3.03;;
12385;SDS011;6257;57.634;18.310;2023-01-30T07:47:49;12.40;;;2.23;;
12385;SDS011;6257;57.634;18.310;2023-01-30T07:50:16;11.57;;;3.00;;
12385;SDS011;6257;57.634;18.310;2023-01-30T07:52:45;8.20;;;2.13;;
12385;SDS011;6257;57.634;18.310;2023-01-30T07:55:12;7.27;;;2.27;;
12385;SDS011;6257;57.634;18.310;2023-01-30T07:57:39;10.93;;;2.90;;
12385;SDS011;6257;57.634;18.310;2023-01-30T08:00:07;12.50;;;1.97;;
12385;SDS011;6257;57.634;18.310;2023-01-30T08:02:36;13.17;;;2.57;;
12385;SDS011;6257;57.634;18.310;2023-01-30T08:05:03;11.13;;;2.20;;
12385;SDS011;6257;57.634;18.310;2023-01-30T08:07:30;22.67;;;3.80;;
12385;SDS011;6257;57.634;18.310;2023-01-30T08:09:59;14.97;;;2.43;;
12385;SDS011;6257;57.634;18.310;2023-01-30T08:12:26;10.03;;;2.10;;
12385;SDS011;6257;57.634;18.310;2023-01-30T08:14:53;10.43;;;2.53;;
12385;SDS011;6257;57.634;18.310;2023-01-30T08:17:20;14.23;;;3.00;;
12385;SDS011;6257;57.634;18.310;2023-01-30T08:19:47;10.07;;;2.00;;
12385;SDS011;6257;57.634;18.310;2023-01-30T08:22:14;12.03;;;2.90;;
12385;SDS011;6257;57.634;18.310;2023-01-30T08:24:41;12.53;;;2.47;;
12385;SDS011;6257;57.634;18.310;2023-01-30T08:27:10;7.80;;;1.87;;
12385;SDS011;6257;57.634;18.310;2023-01-30T08:29:37;13.10;;;1.90;;
12385;SDS011;6257;57.634;18.310;2023-01-30T08:32:04;11.67;;;1.80;;
12385;SDS011;6257;57.634;18.310;2023-01-30T08:34:31;9.10;;;2.20;;
12385;SDS011;6257;57.634;18.310;2023-01-30T08:36:58;8.30;;;2.27;;
12385;SDS011;6257;57.634;18.310;2023-01-30T08:39:25;9.03;;;1.87;;
12385;SDS011;6257;57.634;18.310;2023-01-30T08:41:52;13.27;;;2.30;;
12385;SDS011;6257;57.634;18.310;2023-01-30T08:44:20;9.80;;;1.97;;
12385;SDS011;6257;57.634;18.310;2023-01-30T08:46:47;8.47;;;2.13;;
12385;SDS011;6257;57.634;18.310;2023-01-30T08:49:14;12.40;;;2.30;;
12385;SDS011;6257;57.634;18.310;2023-01-30T08:51:41;7.77;;;2.07;;
12385;SDS011;6257;57.634;18.310;2023-01-30T08:54:08;9.30;;;2.30;;
12385;SDS011;6257;57.634;18.310;2023-01-30T08:56:36;11.77;;;2.30;;
12385;SDS011;6257;57.634;18.310;2023-01-30T08:59:02;13.70;;;1.87;;
12385;SDS011;6257;57.634;18.310;2023-01-30T09:01:32;11.43;;;2.67;;
12385;SDS011;6257;57.634;18.310;2023-01-30T09:03:59;9.47;;;1.60;;
12385;SDS011;6257;57.634;18.310;2023-01-30T09:06:26;11.40;;;2.13;;
12385;SDS011;6257;57.634;18.310;2023-01-30T09:08:53;7.53;;;2.13;;
12385;SDS011;6257;57.634;18.310;2023-01-30T09:11:20;15.27;;;2.40;;
12385;SDS011;6257;57.634;18.310;2023-01-30T09:13:47;13.07;;;2.00;;
12385;SDS011;6257;57.634;18.310;2023-01-30T09:16:14;8.27;;;1.93;;
12385;SDS011;6257;57.634;18.310;2023-01-30T09:18:43;9.20;;;2.10;;
12385;SDS011;6257;57.634;18.310;2023-01-30T09:21:11;7.73;;;2.33;;
12385;SDS011;6257;57.634;18.310;2023-01-30T09:23:38;12.97;;;2.60;;
12385;SDS011;6257;57.634;18.310;2023-01-30T09:26:05;12.73;;;2.60;;
12385;SDS011;6257;57.634;18.310;2023-01-30T09:28:32;15.97;;;2.50;;
12385;SDS011;6257;57.634;18.310;2023-01-30T09:31:01;11.83;;;2.77;;
12385;SDS011;6257;57.634;18.310;2023-01-30T09:33:28;15.97;;;2.37;;
12385;SDS011;6257;57.634;18.310;2023-01-30T09:35:57;13.50;;;2.57;;
12385;SDS011;6257;57.634;18.310;2023-01-30T09:38:24;12.47;;;2.33;;
12385;SDS011;6257;57.634;18.310;2023-01-30T09:43:57;9.00;;;2.60;;
12385;SDS011;6257;57.634;18.310;2023-01-30T09:46:40;11.60;;;2.53;;
12385;SDS011;6257;57.634;18.310;2023-01-30T09:49:15;9.63;;;2.33;;
12385;SDS011;6257;57.634;18.310;2023-01-30T09:51:57;12.03;;;2.33;;
12385;SDS011;6257;57.634;18.310;2023-01-30T09:54:28;16.00;;;2.60;;
12385;SDS011;6257;57.634;18.310;2023-01-30T09:56:58;8.03;;;1.80;;
12385;SDS011;6257;57.634;18.310;2023-01-30T09:59:37;10.33;;;2.17;;
12385;SDS011;6257;57.634;18.310;2023-01-30T10:02:19;9.40;;;2.40;;
12385;SDS011;6257;57.634;18.310;2023-01-30T10:04:54;10.73;;;1.90;;
12385;SDS011;6257;57.634;18.310;2023-01-30T10:07:25;12.73;;;2.63;;
12385;SDS011;6257;57.634;18.310;2023-01-30T10:10:02;11.63;;;2.07;;
12385;SDS011;6257;57.634;18.310;2023-01-30T10:12:38;9.13;;;2.33;;
12385;SDS011;6257;57.634;18.310;2023-01-30T10:18:09;8.17;;;1.80;;
12385;SDS011;6257;57.634;18.310;2023-01-30T10:20:56;8.07;;;1.93;;
12385;SDS011;6257;57.634;18.310;2023-01-30T10:23:43;10.60;;;2.30;;
12385;SDS011;6257;57.634;18.310;2023-01-30T10:26:20;13.57;;;2.03;;
12385;SDS011;6257;57.634;18.310;2023-01-30T10:28:51;12.20;;;1.93;;
12385;SDS011;6257;57.634;18.310;2023-01-30T10:31:23;12.57;;;2.33;;
12385;SDS011;6257;57.634;18.310;2023-01-30T10:33:55;13.20;;;2.40;;
12385;SDS011;6257;57.634;18.310;2023-01-30T10:36:28;7.37;;;1.80;;
12385;SDS011;6257;57.634;18.310;2023-01-30T10:39:05;11.90;;;2.53;;
12385;SDS011;6257;57.634;18.310;2023-01-30T10:41:44;9.30;;;2.07;;
12385;SDS011;6257;57.634;18.310;2023-01-30T10:44:19;10.70;;;1.80;;
12385;SDS011;6257;57.634;18.310;2023-01-30T10:47:02;14.93;;;2.40;;
12385;SDS011;6257;57.634;18.310;2023-01-30T10:49:38;9.40;;;2.00;;
12385;SDS011;6257;57.634;18.310;2023-01-30T10:52:11;5.53;;;1.67;;
12385;SDS011;6257;57.634;18.310;2023-01-30T10:54:55;9.80;;;1.67;;
12385;SDS011;6257;57.634;18.310;2023-01-30T10:57:32;8.67;;;1.83;;
12385;SDS011;6257;57.634;18.310;2023-01-30T11:00:11;12.10;;;2.13;;
12385;SDS011;6257;57.634;18.310;2023-01-30T11:02:51;10.03;;;2.00;;
12385;SDS011;6257;57.634;18.310;2023-01-30T11:05:25;9.07;;;2.23;;
12385;SDS011;6257;57.634;18.310;2023-01-30T11:07:56;9.27;;;2.10;;
12385;SDS011;6257;57.634;18.310;2023-01-30T11:10:25;8.23;;;1.97;;
12385;SDS011;6257;57.634;18.310;2023-01-30T11:12:52;10.77;;;2.83;;
12385;SDS011;6257;57.634;18.310;2023-01-30T11:15:22;9.93;;;2.10;;
12385;SDS011;6257;57.634;18.310;2023-01-30T11:17:49;9.90;;;1.50;;
12385;SDS011;6257;57.634;18.310;2023-01-30T11:20:28;9.20;;;1.87;;
12385;SDS011;6257;57.634;18.310;2023-01-30T11:22:59;9.83;;;2.20;;
12385;SDS011;6257;57.634;18.310;2023-01-30T11:25:32;14.10;;;2.53;;
12385;SDS011;6257;57.634;18.310;2023-01-30T11:28:13;9.23;;;2.27;;
12385;SDS011;6257;57.634;18.310;2023-01-30T11:30:43;13.90;;;2.67;;
12385;SDS011;6257;57.634;18.310;2023-01-30T11:33:18;10.50;;;1.90;;
12385;SDS011;6257;57.634;18.310;2023-01-30T11:35:50;10.73;;;1.90;;
12385;SDS011;6257;57.634;18.310;2023-01-30T11:38:21;10.20;;;1.80;;
12385;SDS011;6257;57.634;18.310;2023-01-30T11:40:53;5.30;;;1.63;;
12385;SDS011;6257;57.634;18.310;2023-01-30T11:43:28;6.60;;;1.83;;
12385;SDS011;6257;57.634;18.310;2023-01-30T11:45:57;8.13;;;1.80;;
12385;SDS011;6257;57.634;18.310;2023-01-30T11:48:26;5.00;;;1.43;;
12385;SDS011;6257;57.634;18.310;2023-01-30T11:50:57;12.70;;;1.80;;
12385;SDS011;6257;57.634;18.310;2023-01-30T11:53:29;12.43;;;1.97;;
12385;SDS011;6257;57.634;18.310;2023-01-30T11:56:02;6.67;;;1.80;;
12385;SDS011;6257;57.634;18.310;2023-01-30T11:58:32;7.90;;;1.80;;
12385;SDS011;6257;57.634;18.310;2023-01-30T12:01:03;7.37;;;1.77;;
12385;SDS011;6257;57.634;18.310;2023-01-30T12:03:32;5.13;;;1.70;;
12385;SDS011;6257;57.634;18.310;2023-01-30T12:06:06;12.67;;;1.83;;
12385;SDS011;6257;57.634;18.310;2023-01-30T12:08:35;7.17;;;1.60;;
12385;SDS011;6257;57.634;18.310;2023-01-30T12:11:17;10.27;;;1.50;;
12385;SDS011;6257;57.634;18.310;2023-01-30T12:13:50;5.50;;;1.40;;
12385;SDS011;6257;57.634;18.310;2023-01-30T12:16:19;12.37;;;1.70;;
12385;SDS011;6257;57.634;18.310;2023-01-30T12:18:53;9.23;;;1.33;;
12385;SDS011;6257;57.634;18.310;2023-01-30T12:21:31;6.63;;;1.37;;
12385;SDS011;6257;57.634;18.310;2023-01-30T12:24:06;6.60;;;1.40;;
12385;SDS011;6257;57.634;18.310;2023-01-30T12:26:46;10.53;;;1.37;;
12385;SDS011;6257;57.634;18.310;2023-01-30T12:29:20;10.07;;;2.17;;
12385;SDS011;6257;57.634;18.310;2023-01-30T12:31:55;7.40;;;1.20;;
12385;SDS011;6257;57.634;18.310;2023-01-30T12:34:30;12.07;;;2.00;;
12385;SDS011;6257;57.634;18.310;2023-01-30T12:37:01;9.80;;;2.40;;
12385;SDS011;6257;57.634;18.310;2023-01-30T12:39:42;9.87;;;1.47;;
12385;SDS011;6257;57.634;18.310;2023-01-30T12:42:22;9.03;;;1.57;;
12385;SDS011;6257;57.634;18.310;2023-01-30T12:45:10;11.43;;;1.97;;
12385;SDS011;6257;57.634;18.310;2023-01-30T12:47:48;9.30;;;1.43;;
12385;SDS011;6257;57.634;18.310;2023-01-30T12:50:36;7.33;;;1.30;;
12385;SDS011;6257;57.634;18.310;2023-01-30T12:53:23;5.00;;;1.53;;
12385;SDS011;6257;57.634;18.310;2023-01-30T12:56:02;11.77;;;2.07;;
12385;SDS011;6257;57.634;18.310;2023-01-30T12:58:50;13.57;;;1.90;;
12385;SDS011;6257;57.634;18.310;2023-01-30T13:01:24;8.13;;;1.53;;
12385;SDS011;6257;57.634;18.310;2023-01-30T13:03:57;6.57;;;1.30;;
12385;SDS011;6257;57.634;18.310;2023-01-30T13:06:33;7.33;;;2.17;;
12385;SDS011;6257;57.634;18.310;2023-01-30T13:09:17;9.73;;;1.30;;
12385;SDS011;6257;57.634;18.310;2023-01-30T13:12:02;6.20;;;1.37;;
12385;SDS011;6257;57.634;18.310;2023-01-30T13:14:40;9.67;;;1.53;;
12385;SDS011;6257;57.634;18.310;2023-01-30T13:17:17;11.07;;;1.80;;
12385;SDS011;6257;57.634;18.310;2023-01-30T13:19:57;9.60;;;1.60;;
12385;SDS011;6257;57.634;18.310;2023-01-30T13:22:29;6.77;;;1.47;;
12385;SDS011;6257;57.634;18.310;2023-01-30T13:25:07;14.33;;;2.47;;
12385;SDS011;6257;57.634;18.310;2023-01-30T13:27:43;5.20;;;1.70;;
12385;SDS011;6257;57.634;18.310;2023-01-30T13:30:18;9.27;;;1.77;;
12385;SDS011;6257;57.634;18.310;2023-01-30T13:32:50;11.37;;;1.37;;
12385;SDS011;6257;57.634;18.310;2023-01-30T13:35:21;5.67;;;1.57;;
12385;SDS011;6257;57.634;18.310;2023-01-30T13:37:51;4.27;;;1.10;;
12385;SDS011;6257;57.634;18.310;2023-01-30T13:40:20;7.07;;;1.67;;
12385;SDS011;6257;57.634;18.310;2023-01-30T13:42:51;9.70;;;2.00;;
12385;SDS011;6257;57.634;18.310;2023-01-30T13:45:24;6.63;;;1.63;;
12385;SDS011;6257;57.634;18.310;2023-01-30T13:47:57;5.93;;;1.50;;
12385;SDS011;6257;57.634;18.310;2023-01-30T13:50:48;7.20;;;1.57;;
12385;SDS011;6257;57.634;18.310;2023-01-30T13:53:27;6.90;;;1.27;;
12385;SDS011;6257;57.634;18.310;2023-01-30T13:56:01;6.77;;;1.23;;
12385;SDS011;6257;57.634;18.310;2023-01-30T13:58:39;4.97;;;1.00;;
12385;SDS011;6257;57.634;18.310;2023-01-30T14:01:13;4.53;;;1.20;;
12385;SDS011;6257;57.634;18.310;2023-01-30T14:03:40;7.70;;;1.27;;
12385;SDS011;6257;57.634;18.310;2023-01-30T14:06:09;5.77;;;1.47;;
12385;SDS011;6257;57.634;18.310;2023-01-30T14:08:39;9.27;;;1.63;;
12385;SDS011;6257;57.634;18.310;2023-01-30T14:11:35;10.53;;;1.30;;
12385;SDS011;6257;57.634;18.310;2023-01-30T14:14:24;10.13;;;1.67;;
12385;SDS011;6257;57.634;18.310;2023-01-30T14:16:55;5.70;;;1.30;;
12385;SDS011;6257;57.634;18.310;2023-01-30T14:19:39;5.00;;;1.17;;
12385;SDS011;6257;57.634;18.310;2023-01-30T14:22:20;2.53;;;0.90;;
12385;SDS011;6257;57.634;18.310;2023-01-30T14:43:26;3.57;;;0.73;;
12385;SDS011;6257;57.634;18.310;2023-01-30T14:46:00;2.53;;;0.90;;
12385;SDS011;6257;57.634;18.310;2023-01-30T14:48:30;3.77;;;0.67;;
12385;SDS011;6257;57.634;18.310;2023-01-30T14:51:16;6.63;;;1.27;;
12385;SDS011;6257;57.634;18.310;2023-01-30T14:53:47;1.60;;;0.67;;
12385;SDS011;6257;57.634;18.310;2023-01-30T14:56:17;3.90;;;0.97;;
12385;SDS011;6257;57.634;18.310;2023-01-30T14:58:58;2.33;;;0.67;;
12385;SDS011;6257;57.634;18.310;2023-01-30T15:04:27;3.53;;;0.50;;
12385;SDS011;6257;57.634;18.310;2023-01-30T15:06:58;4.67;;;0.77;;
12385;SDS011;6257;57.634;18.310;2023-01-30T15:09:30;1.87;;;0.90;;
12385;SDS011;6257;57.634;18.310;2023-01-30T15:12:01;2.93;;;0.70;;
12385;SDS011;6257;57.634;18.310;2023-01-30T15:14:43;2.23;;;0.80;;
12385;SDS011;6257;57.634;18.310;2023-01-30T15:17:19;2.80;;;0.70;;
12385;SDS011;6257;57.634;18.310;2023-01-30T15:20:01;2.90;;;1.80;;
12385;SDS011;6257;57.634;18.310;2023-01-30T15:22:56;3.67;;;0.80;;
12385;SDS011;6257;57.634;18.310;2023-01-30T15:25:39;4.67;;;1.00;;
12385;SDS011;6257;57.634;18.310;2023-01-30T15:28:20;2.70;;;0.83;;
12385;SDS011;6257;57.634;18.310;2023-01-30T15:31:04;3.33;;;1.17;;
12385;SDS011;6257;57.634;18.310;2023-01-30T15:33:42;2.73;;;0.50;;
12385;SDS011;6257;57.634;18.310;2023-01-30T15:36:17;2.73;;;0.97;;
12385;SDS011;6257;57.634;18.310;2023-01-30T15:38:56;3.00;;;0.97;;
12385;SDS011;6257;57.634;18.310;2023-01-30T15:41:25;7.87;;;1.00;;